Time;durP1;ratioP1;P1;durP2;ratioP2;P2;SDS_P1;SDS_P2;PMS_P1;PMS_P2;Temp;Humidity;BMP_temperature;BMP_pressure;BME280_temperature;BME280_humidity;BME280_pressure;Samples;Min_cycle;Max_cycle;Signal;HPM_P1;HPM_P2
2023/05/05 00:00:59;;;;;;;8.10;4.07;;;;;;;11.22;100.00;101673.59;6059221;23;20445;-63
2023/05/05 00:03:26;;;;;;;7.87;4.10;;;;;;;11.24;100.00;101674.25;6060654;23;21203;-63
2023/05/05 00:05:53;;;;;;;8.27;3.70;;;;;;;11.04;100.00;101664.03;6060608;23;20454;-63
2023/05/05 00:08:19;;;;;;;7.20;3.90;;;;;;;10.67;100.00;101613.03;6059862;23;20414;-61
2023/05/05 00:10:46;;;;;;;10.93;4.27;;;;;;;11.11;100.00;101671.34;6059920;23;20410;-61
2023/05/05 00:13:12;;;;;;;7.47;4.07;;;;;;;11.04;100.00;101672.06;6059754;23;20385;-63
2023/05/05 00:15:38;;;;;;;6.47;3.53;;;;;;;11.05;100.00;101657.66;6060164;23;20408;-63
2023/05/05 00:18:04;;;;;;;5.70;3.70;;;;;;;10.89;100.00;101643.53;6057024;23;20872;-63
2023/05/05 00:20:30;;;;;;;6.80;3.77;;;;;;;11.01;100.00;101658.19;6060300;23;20434;-64
2023/05/05 00:22:55;;;;;;;10.30;3.60;;;;;;;11.06;100.00;101656.63;6060964;23;20159;-63
2023/05/05 00:25:21;;;;;;;6.60;3.60;;;;;;;11.24;100.00;101642.84;6062577;23;20418;-62
2023/05/05 00:27:46;;;;;;;5.50;3.50;;;;;;;10.55;100.00;101540.19;6063436;23;20163;-64
2023/05/05 00:30:12;;;;;;;7.83;3.40;;;;;;;11.25;100.00;101639.16;6063919;23;20163;-63
2023/05/05 00:32:38;;;;;;;6.47;3.10;;;;;;;11.02;100.00;101641.06;6062470;23;20155;-63
2023/05/05 00:35:05;;;;;;;6.50;3.80;;;;;;;11.00;100.00;101640.41;6062587;23;20179;-63
2023/05/05 00:37:30;;;;;;;5.70;3.63;;;;;;;10.88;100.00;101618.56;6060657;23;20573;-63
2023/05/05 00:39:56;;;;;;;9.47;3.87;;;;;;;11.00;100.00;101640.41;6060680;23;20914;-62
2023/05/05 00:42:21;;;;;;;8.30;3.13;;;;;;;10.83;100.00;101639.72;6059509;23;20159;-63
2023/05/05 00:44:47;;;;;;;3.90;2.80;;;;;;;10.90;100.00;101635.28;6059846;23;20163;-63
2023/05/05 00:47:15;;;;;;;6.30;3.07;;;;;;;10.91;100.00;101626.25;6062594;23;20177;-64
2023/05/05 00:49:41;;;;;;;6.57;3.20;;;;;;;10.78;100.00;101613.41;6062105;23;20152;-64
2023/05/05 00:52:08;;;;;;;4.07;2.67;;;;;;;10.77;100.00;101609.06;6062793;23;20452;-63
2023/05/05 00:54:34;;;;;;;6.27;3.50;;;;;;;10.56;100.00;101596.34;6061092;23;20242;-63
2023/05/05 00:57:01;;;;;;;7.27;3.30;;;;;;;10.84;100.00;101630.66;6062148;23;20431;-63
2023/05/05 00:59:29;;;;;;;5.80;2.90;;;;;;;10.69;100.00;101619.03;6060279;23;20427;-64
2023/05/05 01:01:55;;;;;;;6.40;3.43;;;;;;;10.75;100.00;101616.47;6061882;23;20383;-64
2023/05/05 01:04:20;;;;;;;6.83;3.70;;;;;;;10.90;100.00;101626.41;6061690;23;20442;-63
2023/05/05 01:07:11;;;;;;;5.30;3.40;;;;;;;10.63;100.00;101597.28;6061139;23;20190;-62
2023/05/05 01:10:04;;;;;;;4.97;3.10;;;;;;;10.81;100.00;101615.75;6061487;23;20140;-63
2023/05/05 01:12:47;;;;;;;7.00;3.17;;;;;;;10.72;100.00;101610.63;6062098;23;20378;-63
2023/05/05 01:15:25;;;;;;;6.53;3.47;;;;;;;10.75;100.00;101605.72;6062148;23;20859;-64
2023/05/05 01:17:56;;;;;;;10.67;3.27;;;;;;;10.74;100.00;101605.94;6060518;23;20383;-63
2023/05/05 01:20:39;;;;;;;4.53;2.90;;;;;;;10.62;100.00;101590.25;6060720;23;20423;-64
2023/05/05 01:23:07;;;;;;;5.00;3.00;;;;;;;10.68;100.00;101590.56;6062189;23;21217;-64
2023/05/05 01:26:09;;;;;;;4.13;2.80;;;;;;;10.55;100.00;101589.31;6062418;23;20931;-64
2023/05/05 01:29:23;;;;;;;5.33;3.17;;;;;;;10.64;100.00;101590.06;6062543;23;20387;-63
2023/05/05 01:31:53;;;;;;;6.10;3.17;;;;;;;10.63;100.00;101581.19;5976512;23;20392;-64
2023/05/05 01:34:34;;;;;;;5.50;3.33;;;;;;;10.69;100.00;101585.00;6064430;23;20394;-63
2023/05/05 01:37:57;;;;;;;4.63;2.83;;;;;;;10.65;100.00;101566.78;6064046;23;20414;-63
2023/05/05 01:40:26;;;;;;;5.10;2.70;;;;;;;10.66;100.00;101587.22;6019924;23;20442;-64
2023/05/05 01:42:54;;;;;;;6.90;2.83;;;;;;;10.69;100.00;101582.31;6064372;23;20380;-63
2023/05/05 01:45:23;;;;;;;5.90;2.97;;;;;;;10.39;100.00;101549.22;6063869;23;20406;-66
2023/05/05 01:47:49;;;;;;;3.30;2.37;;;;;;;10.55;100.00;101567.84;6064382;23;20378;-63
2023/05/05 01:50:16;;;;;;;3.27;2.33;;;;;;;10.54;100.00;101560.00;6064030;23;20372;-64
2023/05/05 01:52:44;;;;;;;5.67;3.23;;;;;;;10.54;100.00;101560.00;6064341;23;20721;-64
2023/05/05 01:55:12;;;;;;;4.50;2.57;;;;;;;10.25;100.00;101512.44;6063459;23;21036;-63
2023/05/05 01:57:40;;;;;;;4.03;2.60;;;;;;;10.67;100.00;101554.81;6060455;23;20470;-62
2023/05/05 02:00:08;;;;;;;5.03;2.70;;;;;;;10.48;100.00;101540.09;6062683;23;20758;-63
2023/05/05 02:02:34;;;;;;;4.10;2.40;;;;;;;10.31;100.00;101546.59;6062186;23;20384;-63
2023/05/05 02:05:02;;;;;;;7.90;2.90;;;;;;;10.47;100.00;101545.63;6061573;23;20887;-63
2023/05/05 02:07:30;;;;;;;7.23;3.10;;;;;;;10.32;100.00;101522.28;6062257;23;21073;-64
2023/05/05 02:09:56;;;;;;;6.30;3.60;;;;;;;10.60;100.00;101565.44;6059417;23;20562;-63
2023/05/05 02:12:22;;;;;;;8.37;2.90;;;;;;;10.18;100.00;101531.06;6061103;23;21222;-63
2023/05/05 02:14:49;;;;;;;6.77;3.10;;;;;;;10.65;100.00;101551.50;6058807;23;20463;-63
2023/05/05 02:17:16;;;;;;;6.60;2.97;;;;;;;10.60;100.00;101538.63;6058893;23;20664;-63
2023/05/05 02:19:44;;;;;;;5.87;2.90;;;;;;;10.55;100.00;101530.28;6062759;23;20427;-66
2023/05/05 02:22:11;;;;;;;11.60;3.37;;;;;;;10.26;100.00;101471.19;6061348;23;20379;-63
2023/05/05 02:24:36;;;;;;;8.80;3.43;;;;;;;10.35;100.00;101502.31;6060013;23;20388;-63
2023/05/05 02:27:06;;;;;;;5.00;2.50;;;;;;;10.18;100.00;101496.22;6060657;23;20410;-63
2023/05/05 02:29:40;;;;;;;5.60;2.97;;;;;;;10.02;100.00;101486.47;6059927;23;20158;-63
2023/05/05 02:32:13;;;;;;;3.97;2.70;;;;;;;10.16;100.00;101507.13;6060124;23;20362;-64
2023/05/05 02:34:40;;;;;;;6.20;2.93;;;;;;;10.11;100.00;101509.50;6060311;23;20444;-63
2023/05/05 02:37:08;;;;;;;5.40;3.10;;;;;;;10.26;100.00;101531.00;6059886;23;20990;-64
2023/05/05 02:39:45;;;;;;;7.37;3.73;;;;;;;10.36;100.00;101509.34;6060097;23;20518;-64
2023/05/05 02:42:18;;;;;;;6.80;2.47;;;;;;;10.48;100.00;101512.44;6061036;23;20836;-64
2023/05/05 02:44:44;;;;;;;6.43;3.23;;;;;;;10.43;100.00;101502.25;6060904;23;20447;-62
2023/05/05 02:47:10;;;;;;;4.20;2.33;;;;;;;10.17;100.00;101497.25;6061792;23;20382;-63
2023/05/05 02:49:35;;;;;;;3.53;2.20;;;;;;;10.05;100.00;101472.72;6061445;23;20376;-65
2023/05/05 02:52:01;;;;;;;7.57;3.13;;;;;;;10.47;100.00;101521.47;6060779;23;20159;-63
2023/05/05 02:54:27;;;;;;;4.17;2.43;;;;;;;10.46;100.00;101511.78;6060786;23;20200;-63
2023/05/05 02:56:54;;;;;;;14.53;3.67;;;;;;;10.31;100.00;101498.34;6058767;23;20262;-63
2023/05/05 02:59:55;;;;;;;7.70;3.07;;;;;;;10.30;100.00;101497.50;6062156;23;21114;-64
2023/05/05 03:02:34;;;;;;;6.07;2.50;;;;;;;10.42;100.00;101495.22;6058610;23;20384;-64
2023/05/05 03:05:09;;;;;;;3.80;2.53;;;;;;;10.37;100.00;101502.97;6058532;23;20407;-64
2023/05/05 03:07:40;;;;;;;5.63;2.83;;;;;;;10.36;100.00;101504.00;6060158;23;20398;-63
2023/05/05 03:10:10;;;;;;;5.87;3.53;;;;;;;10.35;100.00;101502.31;6060717;23;20383;-63
2023/05/05 03:12:47;;;;;;;4.10;2.57;;;;;;;10.37;100.00;101511.84;6060136;23;20781;-64
2023/05/05 03:15:13;;;;;;;5.20;2.90;;;;;;;10.36;100.00;101504.00;6058803;23;20445;-64
2023/05/05 03:17:40;;;;;;;5.87;2.63;;;;;;;10.01;100.00;101463.38;6061396;23;20852;-63
2023/05/05 03:20:07;;;;;;;7.47;2.97;;;;;;;10.29;100.00;101485.09;6062245;23;20423;-63
2023/05/05 03:22:37;;;;;;;7.60;3.50;;;;;;;10.13;100.00;101480.69;6059822;23;20414;-64
2023/05/05 03:25:03;;;;;;;6.00;3.13;;;;;;;10.49;100.00;101519.47;6060689;23;21099;-64
2023/05/05 03:27:28;;;;;;;4.50;2.60;;;;;;;10.31;100.00;101519.78;6059542;23;20379;-64
2023/05/05 03:29:54;;;;;;;4.83;3.03;;;;;;;10.27;100.00;101518.47;6060962;23;20391;-63
2023/05/05 03:32:22;;;;;;;6.97;2.67;;;;;;;10.13;100.00;101472.66;6058911;23;20159;-62
2023/05/05 03:34:47;;;;;;;8.43;3.00;;;;;;;10.27;100.00;101499.69;6061459;23;20206;-64
2023/05/05 03:37:13;;;;;;;8.03;2.57;;;;;;;10.28;100.00;101510.25;6056864;23;20391;-63
2023/05/05 03:39:38;;;;;;;11.30;3.20;;;;;;;10.43;100.00;101501.41;6061558;23;20257;-64
2023/05/05 03:42:04;;;;;;;5.47;2.27;;;;;;;10.24;100.00;101463.34;6062496;23;20167;-63
2023/05/05 03:44:29;;;;;;;4.23;2.60;;;;;;;10.45;100.00;101520.84;6062408;23;20163;-64
2023/05/05 03:46:55;;;;;;;5.13;2.83;;;;;;;10.09;100.00;101486.56;6062207;23;20178;-64
2023/05/05 03:49:20;;;;;;;3.60;2.40;;;;;;;10.07;100.00;101472.53;6062033;23;20258;-63
2023/05/05 03:51:46;;;;;;;4.20;2.93;;;;;;;10.25;100.00;101485.63;6060612;23;20165;-64
2023/05/05 03:54:12;;;;;;;3.00;2.37;;;;;;;10.42;100.00;101497.06;6061885;23;20671;-63
2023/05/05 03:56:38;;;;;;;2.90;2.50;;;;;;;10.41;100.00;101490.84;6059112;23;20421;-63
2023/05/05 03:59:03;;;;;;;3.70;2.43;;;;;;;10.29;100.00;101486.94;6061312;23;20474;-63
2023/05/05 04:01:30;;;;;;;5.77;2.50;;;;;;;10.18;100.00;101470.25;6060027;23;20292;-63
2023/05/05 04:03:55;;;;;;;6.30;2.80;;;;;;;10.13;100.00;101488.72;6064072;23;20155;-63
2023/05/05 04:06:21;;;;;;;5.07;2.57;;;;;;;10.37;100.00;101498.44;6064701;23;20406;-63
2023/05/05 04:08:46;;;;;;;5.63;2.60;;;;;;;10.04;100.00;101452.28;6064535;23;20198;-64
2023/05/05 04:11:12;;;;;;;4.13;2.40;;;;;;;10.38;100.00;101491.22;6065216;23;20148;-63
2023/05/05 04:13:37;;;;;;;6.83;2.53;;;;;;;10.34;100.00;101504.16;6066058;23;20155;-63
2023/05/05 04:16:03;;;;;;;4.97;2.50;;;;;;;10.31;100.00;101495.66;6064680;23;20175;-63
2023/05/05 04:18:29;;;;;;;3.30;2.63;;;;;;;10.24;100.00;101503.56;6066204;23;20194;-64
2023/05/05 04:20:54;;;;;;;4.90;2.73;;;;;;;10.12;100.00;101494.25;6062795;23;20466;-64
2023/05/05 04:23:20;;;;;;;7.93;3.60;;;;;;;10.19;100.00;101522.03;6065731;23;20152;-63
2023/05/05 04:25:46;;;;;;;3.40;2.40;;;;;;;10.23;100.00;101531.38;6065115;23;20175;-63
2023/05/05 04:28:11;;;;;;;5.87;2.53;;;;;;;10.25;100.00;101545.44;6065767;23;20165;-63
2023/05/05 04:30:37;;;;;;;5.97;2.63;;;;;;;10.16;100.00;101525.06;6064764;23;20486;-63
2023/05/05 04:33:02;;;;;;;6.30;2.53;;;;;;;10.14;100.00;101533.28;6066145;23;20155;-64
2023/05/05 04:35:28;;;;;;;3.80;2.63;;;;;;;10.36;100.00;101549.59;6061535;23;20186;-63
2023/05/05 04:37:53;;;;;;;5.83;2.63;;;;;;;10.11;100.00;101555.09;6063132;23;20159;-63
2023/05/05 04:40:19;;;;;;;4.03;2.60;;;;;;;10.10;100.00;101510.53;6062578;23;20189;-64
2023/05/05 04:42:45;;;;;;;10.87;3.40;;;;;;;10.32;100.00;101561.66;6060785;23;20159;-64
2023/05/05 04:45:10;;;;;;;4.40;2.20;;;;;;;10.56;100.00;101564.16;6063295;23;20885;-63
2023/05/05 04:47:37;;;;;;;5.20;2.70;;;;;;;10.34;100.00;101552.44;6062725;23;20155;-64
2023/05/05 04:50:03;;;;;;;4.20;2.53;;;;;;;10.09;100.00;101527.59;6065037;23;20155;-63
2023/05/05 04:52:28;;;;;;;5.73;2.70;;;;;;;10.07;100.00;101516.25;6063146;23;20400;-64
2023/05/05 04:54:54;;;;;;;5.67;3.10;;;;;;;10.28;100.00;101577.28;6063663;23;20154;-64
2023/05/05 04:57:19;;;;;;;5.93;2.30;;;;;;;10.22;100.00;101582.50;6064202;23;20216;-64
2023/05/05 04:59:45;;;;;;;5.10;2.43;;;;;;;10.47;100.00;101600.13;6063805;23;20266;-63
2023/05/05 05:02:10;;;;;;;7.70;2.50;;;;;;;10.30;100.00;101598.53;6065164;23;20163;-64
2023/05/05 05:04:36;;;;;;;6.13;2.97;;;;;;;10.42;100.00;101594.44;6061786;23;20178;-63
2023/05/05 05:07:01;;;;;;;4.10;2.50;;;;;;;10.23;100.00;101560.03;6058116;23;20283;-64
2023/05/05 05:09:26;;;;;;;5.57;2.53;;;;;;;10.41;100.00;101600.81;6061451;23;20830;-63
2023/05/05 05:11:52;;;;;;;6.40;2.80;;;;;;;10.43;100.00;101600.66;6061055;23;20215;-63
2023/05/05 05:14:17;;;;;;;7.00;2.60;;;;;;;10.06;100.00;101548.59;6062709;23;20244;-63
2023/05/05 05:16:43;;;;;;;4.27;2.47;;;;;;;10.42;100.00;101597.13;6059418;23;20258;-63
2023/05/05 05:19:08;;;;;;;3.00;2.63;;;;;;;10.46;100.00;101603.78;6062339;23;20165;-63
2023/05/05 05:21:34;;;;;;;6.30;2.70;;;;;;;10.53;100.00;101611.94;6061880;23;20230;-64
2023/05/05 05:23:59;;;;;;;6.90;3.07;;;;;;;10.67;100.00;101626.44;6061426;23;20159;-63
2023/05/05 05:26:47;;;;;;;5.73;2.40;;;;;;;10.52;100.00;101605.75;6062302;23;20175;-64
2023/05/05 05:29:13;;;;;;;5.07;2.57;;;;;;;10.59;100.00;101624.66;6060031;23;20230;-66
2023/05/05 05:31:38;;;;;;;5.13;2.53;;;;;;;10.61;100.00;101598.47;6060197;23;20761;-63
2023/05/05 05:34:04;;;;;;;5.20;3.00;;;;;;;10.69;100.00;101624.41;6060714;23;20155;-64
2023/05/05 05:36:30;;;;;;;4.33;2.57;;;;;;;10.79;100.00;101614.25;6063020;23;20175;-64
2023/05/05 05:38:55;;;;;;;5.17;3.90;;;;;;;10.66;100.00;101600.63;6062224;23;20155;-64
2023/05/05 05:41:21;;;;;;;10.77;3.17;;;;;;;10.63;100.00;101596.47;6061860;23;20474;-64
2023/05/05 05:43:46;;;;;;;5.00;2.80;;;;;;;10.61;100.00;101626.13;6061580;23;20242;-62
2023/05/05 05:46:12;;;;;;;3.80;2.67;;;;;;;10.59;100.00;101627.34;6061773;23;20627;-64
2023/05/05 05:48:37;;;;;;;6.27;2.93;;;;;;;10.54;100.00;101629.72;6060303;23;20266;-63
2023/05/05 05:51:03;;;;;;;10.30;3.57;;;;;;;10.46;100.00;101643.19;6062282;23;20155;-64
2023/05/05 05:53:28;;;;;;;5.47;3.40;;;;;;;10.56;100.00;101617.81;6064384;23;20807;-64
2023/05/05 05:55:53;;;;;;;7.73;3.23;;;;;;;10.73;100.00;101623.88;6055457;23;20183;-63
2023/05/05 05:58:19;;;;;;;6.53;3.00;;;;;;;10.52;100.00;101599.56;6060397;23;20165;-63
2023/05/05 06:00:44;;;;;;;8.50;2.77;;;;;;;10.41;100.00;101560.56;6061233;23;20774;-64
2023/05/05 06:03:10;;;;;;;5.40;3.27;;;;;;;10.66;100.00;101589.91;6061312;23;20155;-62
2023/05/05 06:05:36;;;;;;;5.47;2.90;;;;;;;10.42;100.00;101601.66;6060529;23;20172;-64
2023/05/05 06:08:01;;;;;;;6.77;3.43;;;;;;;10.23;100.00;101638.59;6061371;23;20190;-63
2023/05/05 06:10:27;;;;;;;5.60;2.80;;;;;;;10.27;100.00;101652.53;6059375;23;20155;-64
2023/05/05 06:12:52;;;;;;;4.30;2.80;;;;;;;9.95;100.00;101557.84;6060867;23;20561;-62
2023/05/05 06:15:18;;;;;;;4.53;3.10;;;;;;;10.50;100.00;101628.41;6061309;23;20187;-62
2023/05/05 06:17:43;;;;;;;9.87;3.73;;;;;;;10.44;100.00;101607.66;6057768;23;20218;-63
2023/05/05 06:20:09;;;;;;;4.37;2.87;;;;;;;10.52;100.00;101604.94;6063468;23;20183;-63
2023/05/05 06:22:34;;;;;;;5.70;3.43;;;;;;;10.37;100.00;101572.69;6062969;23;20511;-63
2023/05/05 06:25:00;;;;;;;6.60;3.17;;;;;;;10.36;100.00;101563.81;6061854;23;20382;-63
2023/05/05 06:27:25;;;;;;;6.73;3.40;;;;;;;10.44;100.00;101551.34;6062086;23;20159;-62
2023/05/05 06:29:51;;;;;;;9.23;3.83;;;;;;;10.11;100.00;101536.31;6063950;23;20151;-63
2023/05/05 06:32:16;;;;;;;7.00;3.60;;;;;;;10.12;100.00;101531.78;6063268;23;20163;-63
2023/05/05 06:34:43;;;;;;;8.50;3.40;;;;;;;10.09;100.00;101527.59;6060932;23;20241;-63
2023/05/05 06:37:09;;;;;;;5.83;3.87;;;;;;;10.23;100.00;101571.59;6062769;23;20179;-63
2023/05/05 06:39:35;;;;;;;6.53;3.37;;;;;;;10.18;100.00;101565.91;6063046;23;20478;-64
2023/05/05 06:42:00;;;;;;;6.40;3.53;;;;;;;9.98;100.00;101562.03;6059367;23;20603;-63
2023/05/05 06:44:27;;;;;;;6.27;3.73;;;;;;;10.14;100.00;101570.81;6062771;23;20390;-63
2023/05/05 06:46:53;;;;;;;4.57;3.30;;;;;;;10.25;100.00;101566.06;6060402;23;20186;-66
2023/05/05 06:49:18;;;;;;;5.43;3.27;;;;;;;10.31;100.00;101574.25;6062674;23;20396;-63
2023/05/05 06:51:43;;;;;;;6.33;3.17;;;;;;;9.96;100.00;101522.03;6062729;23;20382;-63
2023/05/05 06:54:09;;;;;;;8.27;3.20;;;;;;;10.26;100.00;101531.00;6061231;23;20163;-64
2023/05/05 06:56:34;;;;;;;8.67;3.33;;;;;;;10.04;100.00;101535.38;6060835;23;20182;-63
2023/05/05 06:59:00;;;;;;;6.07;3.70;;;;;;;9.68;100.00;101513.66;6060394;23;20626;-63
2023/05/05 07:01:25;;;;;;;8.40;3.30;;;;;;;10.01;100.00;101570.56;6061098;23;20262;-62
2023/05/05 07:03:51;;;;;;;5.50;3.80;;;;;;;10.36;100.00;101587.94;6061029;23;20163;-63
2023/05/05 07:06:16;;;;;;;5.33;3.80;;;;;;;10.11;100.00;101573.84;6060950;23;20558;-64
2023/05/05 07:08:42;;;;;;;7.60;3.30;;;;;;;9.98;100.00;101511.97;6061188;23;20146;-63
2023/05/05 07:11:07;;;;;;;4.80;3.50;;;;;;;9.36;100.00;101487.88;6059789;23;20152;-63
2023/05/05 07:13:33;;;;;;;6.83;3.77;;;;;;;9.85;100.00;101598.28;6060880;23;20159;-62
2023/05/05 07:15:58;;;;;;;8.87;3.20;;;;;;;10.43;100.00;101628.28;6060462;23;20836;-61
2023/05/05 07:18:24;;;;;;;6.37;4.00;;;;;;;10.02;100.00;101576.75;6060723;23;20155;-64
2023/05/05 07:20:49;;;;;;;6.97;3.93;;;;;;;10.46;100.00;101627.09;6061426;23;20657;-63
2023/05/05 07:23:15;;;;;;;7.23;4.03;;;;;;;10.60;100.00;101618.28;6062545;23;20159;-63
2023/05/05 07:25:40;;;;;;;5.07;3.43;;;;;;;10.54;100.00;101646.66;6061392;23;20179;-63
2023/05/05 07:28:06;;;;;;;5.27;3.37;;;;;;;10.26;100.00;101597.22;6062171;23;20600;-62
2023/05/05 07:30:31;;;;;;;9.63;4.00;;;;;;;10.73;100.00;101650.72;6061534;23;20151;-63
2023/05/05 07:32:57;;;;;;;5.33;3.60;;;;;;;11.09;100.00;101637.47;6060795;23;20159;-63
2023/05/05 07:35:22;;;;;;;6.53;3.93;;;;;;;11.07;100.00;101639.50;6061973;23;20179;-63
2023/05/05 07:37:48;;;;;;;7.07;4.30;;;;;;;10.96;100.00;101601.53;6060595;23;20159;-65
2023/05/05 07:40:14;;;;;;;7.70;3.43;;;;;;;11.39;100.00;101621.38;6061719;23;20183;-62
2023/05/05 07:42:40;;;;;;;5.87;4.00;;;;;;;11.40;100.00;101609.63;6061268;23;20413;-63
2023/05/05 07:45:06;;;;;;;6.07;3.77;;;;;;;11.47;100.00;101626.66;6061535;23;20227;-62
2023/05/05 07:47:32;;;;;;;4.90;3.70;;;;;;;11.57;100.00;101612.97;6058995;23;20167;-62
2023/05/05 07:49:57;;;;;;;6.23;4.33;;;;;;;11.75;100.00;101620.63;6060579;23;20708;-62
2023/05/05 07:52:23;;;;;;;7.70;3.93;;;;;;;11.72;100.00;101618.31;6058503;23;20563;-64
2023/05/05 07:54:49;;;;;;;7.70;3.87;;;;;;;11.97;100.00;101622.38;6060508;23;20667;-63
2023/05/05 07:57:15;;;;;;;5.97;3.93;;;;;;;11.97;100.00;101624.22;6063182;23;20231;-63
2023/05/05 07:59:42;;;;;;;6.70;4.10;;;;;;;11.98;100.00;101617.84;6060317;23;20242;-63
2023/05/05 08:02:12;;;;;;;5.80;3.77;;;;;;;11.62;100.00;101588.19;6061689;23;20467;-63
2023/05/05 08:04:41;;;;;;;7.63;4.40;;;;;;;11.84;100.00;101605.22;6058933;23;20542;-63
2023/05/05 08:07:07;;;;;;;5.93;3.53;;;;;;;11.35;100.00;101525.25;6062495;23;20481;-63
2023/05/05 08:09:34;;;;;;;8.33;3.80;;;;;;;11.73;100.00;101625.34;6062476;23;20383;-63
2023/05/05 08:12:01;;;;;;;5.63;3.67;;;;;;;11.89;100.00;101622.50;6063415;23;20159;-63
2023/05/05 08:14:27;;;;;;;9.47;4.07;;;;;;;11.74;100.00;101625.19;6061234;23;20411;-63
2023/05/05 08:16:52;;;;;;;8.40;4.40;;;;;;;11.86;100.00;101605.88;6062442;23;20779;-65
2023/05/05 08:19:18;;;;;;;11.30;4.43;;;;;;;11.74;100.00;101608.19;6058088;23;20627;-63
2023/05/05 08:21:43;;;;;;;7.67;4.27;;;;;;;11.60;100.00;101580.34;6060357;23;20163;-63
2023/05/05 08:24:09;;;;;;;6.13;3.40;;;;;;;12.11;100.00;101634.13;6060884;23;20186;-62
2023/05/05 08:26:35;;;;;;;6.63;3.50;;;;;;;11.90;100.00;101597.28;6061461;23;20307;-63
2023/05/05 08:29:00;;;;;;;6.00;4.43;;;;;;;12.16;100.00;101638.94;6062490;23;20151;-63
2023/05/05 08:31:27;;;;;;;7.77;4.40;;;;;;;12.20;100.00;101632.13;6063401;23;20203;-62
2023/05/05 08:33:53;;;;;;;4.70;3.43;;;;;;;12.34;100.00;101615.13;6062315;23;20210;-63
2023/05/05 08:36:18;;;;;;;10.37;4.37;;;;;;;12.34;100.00;101617.81;6060410;23;20415;-63
2023/05/05 08:38:45;;;;;;;6.30;3.90;;;;;;;12.46;100.00;101609.22;6062639;23;20502;-63
2023/05/05 08:41:13;;;;;;;10.80;5.47;;;;;;;12.54;100.00;101644.09;6062323;23;20182;-63
2023/05/05 08:43:38;;;;;;;10.37;5.03;;;;;;;12.48;100.00;101626.84;6063705;23;20403;-63
2023/05/05 08:46:04;;;;;;;6.50;4.13;;;;;;;12.86;100.00;101642.72;6060441;23;20418;-63
2023/05/05 08:48:32;;;;;;;7.03;4.50;;;;;;;12.47;100.00;101660.19;6058358;23;20159;-64
2023/05/05 08:50:58;;;;;;;6.17;4.27;;;;;;;12.54;100.00;101617.19;6063069;23;20205;-62
2023/05/05 08:53:59;;;;;;;8.83;4.87;;;;;;;12.61;100.00;101653.91;6062198;23;20942;-63
2023/05/05 08:56:30;;;;;;;5.70;4.03;;;;;;;12.57;100.00;101649.09;6061225;23;20391;-62
2023/05/05 08:58:57;;;;;;;6.93;4.40;;;;;;;12.72;100.00;101644.47;6060813;23;20379;-63
2023/05/05 09:01:22;;;;;;;4.53;3.87;;;;;;;12.78;100.00;101651.75;6063206;23;20924;-63
2023/05/05 09:03:48;;;;;;;10.00;4.40;;;;;;;12.74;100.00;101655.88;6059788;23;20490;-62
2023/05/05 09:06:14;;;;;;;7.53;4.73;;;;;;;12.75;100.00;101640.56;6060646;23;20246;-63
2023/05/05 09:08:40;;;;;;;7.03;6.13;;;;;;;12.82;100.00;101642.28;6062299;23;20143;-63
2023/05/05 09:11:05;;;;;;;8.40;4.30;;;;;;;12.80;100.00;101630.03;6063837;23;20372;-62
2023/05/05 09:13:31;;;;;;;7.90;5.30;;;;;;;12.61;100.00;101599.22;6062031;23;20155;-63
2023/05/05 09:15:57;;;;;;;10.23;5.57;;;;;;;12.51;100.00;101606.81;6063275;23;20530;-61
2023/05/05 09:18:23;;;;;;;5.57;4.20;;;;;;;13.16;100.00;101635.28;6062623;23;20155;-63
2023/05/05 09:20:48;;;;;;;6.20;4.57;;;;;;;13.17;100.00;101623.50;6062876;23;20434;-63
2023/05/05 09:23:15;;;;;;;6.40;4.60;;;;;;;13.09;100.00;101607.47;6064892;23;20155;-63
2023/05/05 09:26:02;;;;;;;12.80;4.90;;;;;;;13.26;100.00;101632.28;6064337;23;20666;-63
2023/05/05 09:28:28;;;;;;;7.43;3.80;;;;;;;13.24;100.00;101610.06;6064673;23;20367;-63
2023/05/05 09:30:53;;;;;;;8.00;3.97;;;;;;;13.41;100.00;101629.47;6063101;23;20383;-63
2023/05/05 09:33:32;;;;;;;6.60;5.40;;;;;;;13.43;100.00;101622.88;6064308;23;20525;-63
2023/05/05 09:35:57;;;;;;;9.57;4.53;;;;;;;13.60;100.00;101626.06;6063027;23;20175;-63
2023/05/05 09:38:23;;;;;;;9.33;5.70;;;;;;;13.58;100.00;101630.81;6064813;23;20842;-61
2023/05/05 09:40:51;;;;;;;7.00;4.97;;;;;;;13.55;100.00;101629.34;6060837;23;20194;-63
2023/05/05 09:43:18;;;;;;;9.53;4.63;;;;;;;13.62;100.00;101626.69;6063918;23;20438;-62
2023/05/05 09:45:44;;;;;;;8.67;5.80;;;;;;;13.66;100.00;101625.28;6063784;23;20406;-62
2023/05/05 09:48:26;;;;;;;5.17;4.40;;;;;;;13.77;100.00;101618.47;6063005;23;20450;-63
2023/05/05 09:50:52;;;;;;;8.43;5.27;;;;;;;13.93;100.00;101638.88;6060728;23;20461;-63
2023/05/05 09:53:18;;;;;;;7.47;5.27;;;;;;;14.02;100.00;101634.94;6061299;23;20495;-64
2023/05/05 09:55:59;;;;;;;10.53;5.23;;;;;;;14.01;100.00;101631.44;6059385;23;21199;-64
2023/05/05 09:58:27;;;;;;;7.10;4.80;;;;;;;14.04;100.00;101632.06;6061649;23;20693;-63
2023/05/05 10:00:54;;;;;;;10.13;6.17;;;;;;;14.10;100.00;101633.94;6056663;23;20527;-64
2023/05/05 10:03:20;;;;;;;8.07;5.00;;;;;;;14.26;100.00;101636.25;6061065;23;20379;-63
2023/05/05 10:05:57;;;;;;;7.77;5.57;;;;;;;14.30;100.00;101632.13;6062875;23;20470;-64
2023/05/05 10:08:25;;;;;;;11.00;6.13;;;;;;;14.32;100.00;101624.69;6064517;23;20458;-63
2023/05/05 10:10:52;;;;;;;8.97;5.30;;;;;;;14.33;100.00;101631.72;6063885;23;21101;-65
2023/05/05 10:13:20;;;;;;;6.80;5.13;;;;;;;14.37;100.00;101632.13;6064312;23;20828;-63
2023/05/05 10:15:51;;;;;;;9.53;5.80;;;;;;;14.54;100.00;101629.91;6062105;23;20894;-64
2023/05/05 10:18:22;;;;;;;7.70;6.07;;;;;;;14.61;100.00;101638.84;6064207;23;20369;-64
2023/05/05 10:20:57;;;;;;;10.80;6.27;;;;;;;14.45;100.00;101640.88;6064284;23;20434;-64
2023/05/05 10:23:26;;;;;;;8.93;6.63;;;;;;;14.38;100.00;101631.94;6062786;23;20725;-64
2023/05/05 10:26:03;;;;;;;10.00;6.10;;;;;;;14.65;100.00;101634.72;6063763;23;20402;-63
2023/05/05 10:28:43;;;;;;;8.67;6.27;;;;;;;14.94;100.00;101629.94;6062513;23;20392;-64
2023/05/05 10:31:16;;;;;;;10.70;6.00;;;;;;;14.62;100.00;101608.13;6063118;23;20847;-63
2023/05/05 10:33:51;;;;;;;7.90;6.13;;;;;;;14.98;100.00;101625.78;6064145;23;20842;-63
2023/05/05 10:36:19;;;;;;;9.43;7.50;;;;;;;14.84;100.00;101622.25;6063779;23;20486;-64
2023/05/05 10:38:45;;;;;;;9.03;6.10;;;;;;;15.01;100.00;101614.56;6062632;23;20445;-64
2023/05/05 10:41:12;;;;;;;9.40;6.33;;;;;;;14.84;100.00;101638.44;6062449;23;20435;-64
2023/05/05 10:43:38;;;;;;;10.87;8.37;;;;;;;14.95;100.00;101615.38;6064722;23;20430;-64
2023/05/05 10:46:05;;;;;;;10.10;6.77;;;;;;;14.99;100.00;101620.19;6062217;23;20403;-64
2023/05/05 10:48:44;;;;;;;8.40;6.70;;;;;;;15.11;100.00;101607.69;6064256;23;20382;-65
2023/05/05 10:51:35;;;;;;;7.30;6.03;;;;;;;15.22;100.00;101605.41;6064363;23;20378;-65
2023/05/05 10:54:15;;;;;;;10.10;6.53;;;;;;;15.27;100.00;101598.28;6062495;23;20380;-65
2023/05/05 10:56:42;;;;;;;7.90;6.20;;;;;;;15.44;100.00;101600.53;6063598;23;20402;-65
2023/05/05 10:59:35;;;;;;;9.83;8.17;;;;;;;15.27;100.00;101594.75;6064115;23;20438;-64
2023/05/05 11:02:20;;;;;;;10.27;7.37;;;;;;;15.33;100.00;101581.25;6063767;23;20426;-65
2023/05/05 11:05:20;;;;;;;8.10;6.77;;;;;;;15.43;100.00;101580.81;6063950;23;20696;-64
2023/05/05 11:07:50;;;;;;;11.93;7.50;;;;;;;15.53;100.00;101575.75;6064244;23;20478;-64
2023/05/05 11:10:19;;;;;;;10.80;7.00;;;;;;;15.58;100.00;101586.78;6062135;23;20375;-65
2023/05/05 11:12:56;;;;;;;9.43;6.90;;;;;;;15.77;100.00;101630.22;6062494;23;20391;-65
2023/05/05 11:15:25;;;;;;;11.00;8.63;;;;;;;15.69;100.00;101652.09;6063037;23;20498;-64
2023/05/05 11:17:50;;;;;;;9.03;8.13;;;;;;;15.76;100.00;101644.78;6064112;23;20387;-65
2023/05/05 11:20:38;;;;;;;16.80;10.23;;;;;;;15.71;100.00;101637.31;6063528;23;20427;-66
2023/05/05 11:23:03;;;;;;;12.87;9.67;;;;;;;15.79;100.00;101636.22;6064083;23;20398;-65